sensor_id;sensor_type;location;lat;lon;timestamp;pressure;altitude;pressure_sealevel;temperature;humidity
64614;BME280;51025;37.772;-122.432;2022-12-07T00:01:27;101249.00;;;17.06;29.51
64614;BME280;51025;37.772;-122.432;2022-12-07T00:03:58;101250.66;;;17.62;29.47
64614;BME280;51025;37.772;-122.432;2022-12-07T00:06:28;101253.32;;;17.69;29.44
64614;BME280;51025;37.772;-122.432;2022-12-07T00:08:57;101257.18;;;17.55;29.60
64614;BME280;51025;37.772;-122.432;2022-12-07T00:11:26;101259.22;;;17.93;29.63
64614;BME280;51025;37.772;-122.432;2022-12-07T00:13:57;101260.02;;;17.18;29.65
64614;BME280;51025;37.772;-122.432;2022-12-07T00:16:28;101260.38;;;17.22;29.65
64614;BME280;51025;37.772;-122.432;2022-12-07T00:18:57;101261.61;;;17.93;29.74
64614;BME280;51025;37.772;-122.432;2022-12-07T00:21:31;101263.08;;;17.35;29.93
64614;BME280;51025;37.772;-122.432;2022-12-07T00:24:00;101265.47;;;16.92;29.97
64614;BME280;51025;37.772;-122.432;2022-12-07T00:26:31;101265.98;;;17.22;30.12
64614;BME280;51025;37.772;-122.432;2022-12-07T00:29:02;101265.82;;;17.22;30.23
64614;BME280;51025;37.772;-122.432;2022-12-07T00:31:33;101268.89;;;17.65;30.13
64614;BME280;51025;37.772;-122.432;2022-12-07T00:34:02;101266.50;;;16.60;30.38
64614;BME280;51025;37.772;-122.432;2022-12-07T00:36:30;101269.23;;;17.18;30.30
64614;BME280;51025;37.772;-122.432;2022-12-07T00:39:02;101275.36;;;17.81;30.05
64614;BME280;51025;37.772;-122.432;2022-12-07T00:41:31;101274.24;;;17.28;30.25
64614;BME280;51025;37.772;-122.432;2022-12-07T00:44:00;101277.06;;;17.62;30.32
64614;BME280;51025;37.772;-122.432;2022-12-07T00:46:29;101281.46;;;17.70;30.23
64614;BME280;51025;37.772;-122.432;2022-12-07T00:48:57;101285.73;;;17.31;30.27
64614;BME280;51025;37.772;-122.432;2022-12-07T00:51:26;101285.09;;;17.11;30.51
64614;BME280;51025;37.772;-122.432;2022-12-07T00:53:54;101285.33;;;17.38;30.57
64614;BME280;51025;37.772;-122.432;2022-12-07T00:56:24;101285.48;;;17.29;30.61
64614;BME280;51025;37.772;-122.432;2022-12-07T00:58:55;101287.84;;;17.27;30.68
64614;BME280;51025;37.772;-122.432;2022-12-07T01:01:26;101293.60;;;16.79;30.75
64614;BME280;51025;37.772;-122.432;2022-12-07T01:03:54;101295.30;;;17.15;30.72
64614;BME280;51025;37.772;-122.432;2022-12-07T01:06:24;101297.57;;;17.10;30.73
64614;BME280;51025;37.772;-122.432;2022-12-07T01:08:53;101301.87;;;16.78;30.67
64614;BME280;51025;37.772;-122.432;2022-12-07T01:11:25;101303.20;;;17.09;30.72
64614;BME280;51025;37.772;-122.432;2022-12-07T01:13:54;101307.06;;;17.19;30.59
64614;BME280;51025;37.772;-122.432;2022-12-07T01:16:25;101305.97;;;16.99;30.85
64614;BME280;51025;37.772;-122.432;2022-12-07T01:18:55;101306.74;;;16.92;30.89
64614;BME280;51025;37.772;-122.432;2022-12-07T01:21:26;101311.17;;;16.89;30.86
64614;BME280;51025;37.772;-122.432;2022-12-07T01:23:56;101317.65;;;17.02;30.77
64614;BME280;51025;37.772;-122.432;2022-12-07T01:26:26;101317.22;;;17.00;30.78
64614;BME280;51025;37.772;-122.432;2022-12-07T01:28:55;101317.81;;;16.73;30.72
64614;BME280;51025;37.772;-122.432;2022-12-07T01:31:25;101317.84;;;17.03;30.69
64614;BME280;51025;37.772;-122.432;2022-12-07T01:33:56;101312.82;;;16.91;30.74
64614;BME280;51025;37.772;-122.432;2022-12-07T01:36:27;101310.97;;;16.89;30.82
64614;BME280;51025;37.772;-122.432;2022-12-07T01:38:57;101309.70;;;16.89;30.86
64614;BME280;51025;37.772;-122.432;2022-12-07T01:41:28;101309.52;;;16.82;30.87
64614;BME280;51025;37.772;-122.432;2022-12-07T01:44:19;101311.22;;;16.82;30.80
64614;BME280;51025;37.772;-122.432;2022-12-07T01:46:49;101312.86;;;16.86;30.82
64614;BME280;51025;37.772;-122.432;2022-12-07T01:49:26;101315.21;;;16.75;30.89
64614;BME280;51025;37.772;-122.432;2022-12-07T01:52:04;101316.06;;;16.70;31.03
64614;BME280;51025;37.772;-122.432;2022-12-07T01:54:36;101318.40;;;17.15;30.62
64614;BME280;51025;37.772;-122.432;2022-12-07T01:57:07;101318.64;;;16.98;30.87
64614;BME280;51025;37.772;-122.432;2022-12-07T01:59:36;101318.88;;;17.28;30.59
64614;BME280;51025;37.772;-122.432;2022-12-07T02:02:07;101318.21;;;17.07;30.43
64614;BME280;51025;37.772;-122.432;2022-12-07T02:04:38;101318.86;;;17.44;30.35
64614;BME280;51025;37.772;-122.432;2022-12-07T02:07:07;101319.15;;;17.55;30.01
64614;BME280;51025;37.772;-122.432;2022-12-07T02:09:36;101327.19;;;17.77;29.44
64614;BME280;51025;37.772;-122.432;2022-12-07T02:12:05;101328.73;;;18.11;29.84
64614;BME280;51025;37.772;-122.432;2022-12-07T02:14:33;101333.04;;;18.38;29.27
64614;BME280;51025;37.772;-122.432;2022-12-07T02:17:10;101335.81;;;18.23;29.84
64614;BME280;51025;37.772;-122.432;2022-12-07T02:20:26;101337.89;;;17.86;29.82
64614;BME280;51025;37.772;-122.432;2022-12-07T02:23:31;101339.99;;;18.76;29.09
64614;BME280;51025;37.772;-122.432;2022-12-07T02:26:21;101341.79;;;18.84;28.82
64614;BME280;51025;37.772;-122.432;2022-12-07T02:29:09;101344.47;;;18.81;29.26
64614;BME280;51025;37.772;-122.432;2022-12-07T02:31:43;101349.49;;;18.42;29.69
64614;BME280;51025;37.772;-122.432;2022-12-07T02:34:18;101352.10;;;18.73;29.26
64614;BME280;51025;37.772;-122.432;2022-12-07T02:36:57;101356.41;;;18.74;29.99
64614;BME280;51025;37.772;-122.432;2022-12-07T02:39:33;101352.35;;;18.40;30.01
64614;BME280;51025;37.772;-122.432;2022-12-07T02:42:07;101352.91;;;19.01;30.16
64614;BME280;51025;37.772;-122.432;2022-12-07T02:44:38;101351.64;;;18.56;30.57
64614;BME280;51025;37.772;-122.432;2022-12-07T02:47:11;101354.17;;;18.79;30.70
64614;BME280;51025;37.772;-122.432;2022-12-07T02:49:41;101354.19;;;19.90;29.53
64614;BME280;51025;37.772;-122.432;2022-12-07T02:52:10;101352.34;;;18.78;30.52
64614;BME280;51025;37.772;-122.432;2022-12-07T02:54:39;101354.04;;;19.24;30.01
64614;BME280;51025;37.772;-122.432;2022-12-07T02:57:20;101354.00;;;20.02;29.35
64614;BME280;51025;37.772;-122.432;2022-12-07T03:00:01;101357.56;;;19.41;29.60
64614;BME280;51025;37.772;-122.432;2022-12-07T03:02:39;101355.42;;;18.74;30.28
64614;BME280;51025;37.772;-122.432;2022-12-07T03:05:29;101356.72;;;19.28;29.64
64614;BME280;51025;37.772;-122.432;2022-12-07T03:08:06;101363.72;;;19.30;29.54
64614;BME280;51025;37.772;-122.432;2022-12-07T03:10:41;101364.67;;;18.61;29.81
64614;BME280;51025;37.772;-122.432;2022-12-07T03:13:21;101369.66;;;18.35;29.80
64614;BME280;51025;37.772;-122.432;2022-12-07T03:15:56;101370.66;;;18.98;30.04
64614;BME280;51025;37.772;-122.432;2022-12-07T03:18:28;101376.45;;;18.42;30.71
64614;BME280;51025;37.772;-122.432;2022-12-07T03:21:04;101376.63;;;19.78;30.09
64614;BME280;51025;37.772;-122.432;2022-12-07T03:23:35;101377.36;;;19.79;30.40
64614;BME280;51025;37.772;-122.432;2022-12-07T03:26:08;101378.95;;;18.99;31.10
64614;BME280;51025;37.772;-122.432;2022-12-07T03:28:41;101374.53;;;19.84;30.88
64614;BME280;51025;37.772;-122.432;2022-12-07T03:31:14;101377.80;;;19.26;31.44
64614;BME280;51025;37.772;-122.432;2022-12-07T03:33:48;101372.74;;;20.81;30.32
64614;BME280;51025;37.772;-122.432;2022-12-07T03:36:22;101379.74;;;19.50;31.93
64614;BME280;51025;37.772;-122.432;2022-12-07T03:38:57;101377.55;;;20.12;30.86
64614;BME280;51025;37.772;-122.432;2022-12-07T03:41:31;101381.82;;;20.13;31.14
64614;BME280;51025;37.772;-122.432;2022-12-07T03:44:00;101387.50;;;19.44;32.59
64614;BME280;51025;37.772;-122.432;2022-12-07T03:46:36;101387.93;;;20.50;31.12
64614;BME280;51025;37.772;-122.432;2022-12-07T03:49:16;101393.85;;;19.68;32.07
64614;BME280;51025;37.772;-122.432;2022-12-07T03:51:52;101392.06;;;20.29;31.21
64614;BME280;51025;37.772;-122.432;2022-12-07T03:54:25;101390.73;;;20.43;31.10
64614;BME280;51025;37.772;-122.432;2022-12-07T03:58:37;101394.09;;;19.83;30.69
64614;BME280;51025;37.772;-122.432;2022-12-07T04:01:07;101395.50;;;19.54;30.57
64614;BME280;51025;37.772;-122.432;2022-12-07T04:03:35;101395.62;;;19.42;30.76
64614;BME280;51025;37.772;-122.432;2022-12-07T04:06:03;101398.29;;;19.61;30.76
64614;BME280;51025;37.772;-122.432;2022-12-07T04:08:32;101400.75;;;19.34;30.91
64614;BME280;51025;37.772;-122.432;2022-12-07T04:11:02;101403.47;;;19.09;31.07
64614;BME280;51025;37.772;-122.432;2022-12-07T04:13:31;101403.96;;;18.70;31.29
64614;BME280;51025;37.772;-122.432;2022-12-07T04:15:59;101403.16;;;18.88;30.93
64614;BME280;51025;37.772;-122.432;2022-12-07T04:18:27;101407.83;;;19.73;30.56
64614;BME280;51025;37.772;-122.432;2022-12-07T04:20:55;101408.70;;;19.68;30.45
64614;BME280;51025;37.772;-122.432;2022-12-07T04:23:23;101407.43;;;19.75;29.97
64614;BME280;51025;37.772;-122.432;2022-12-07T04:25:51;101411.88;;;19.95;29.94
64614;BME280;51025;37.772;-122.432;2022-12-07T04:28:19;101412.09;;;18.97;30.33
64614;BME280;51025;37.772;-122.432;2022-12-07T04:30:47;101416.65;;;19.47;30.30
64614;BME280;51025;37.772;-122.432;2022-12-07T04:33:16;101421.15;;;18.77;30.24
64614;BME280;51025;37.772;-122.432;2022-12-07T04:35:45;101424.62;;;19.42;30.24
64614;BME280;51025;37.772;-122.432;2022-12-07T04:38:14;101424.43;;;19.06;30.24
64614;BME280;51025;37.772;-122.432;2022-12-07T04:40:42;101419.51;;;19.55;30.23
64614;BME280;51025;37.772;-122.432;2022-12-07T04:43:11;101419.75;;;19.70;29.92
64614;BME280;51025;37.772;-122.432;2022-12-07T04:45:39;101423.17;;;19.23;29.77
64614;BME280;51025;37.772;-122.432;2022-12-07T04:48:07;101424.44;;;19.63;29.90
64614;BME280;51025;37.772;-122.432;2022-12-07T04:50:36;101426.72;;;19.81;29.87
64614;BME280;51025;37.772;-122.432;2022-12-07T04:53:05;101430.88;;;19.08;30.13
64614;BME280;51025;37.772;-122.432;2022-12-07T04:55:34;101433.68;;;19.61;29.91
64614;BME280;51025;37.772;-122.432;2022-12-07T04:58:03;101434.56;;;19.61;29.47
64614;BME280;51025;37.772;-122.432;2022-12-07T05:00:32;101440.56;;;19.77;29.62
64614;BME280;51025;37.772;-122.432;2022-12-07T05:03:00;101438.72;;;19.97;29.46
64614;BME280;51025;37.772;-122.432;2022-12-07T05:05:28;101440.43;;;19.75;29.19
64614;BME280;51025;37.772;-122.432;2022-12-07T05:07:57;101433.94;;;20.60;28.79
64614;BME280;51025;37.772;-122.432;2022-12-07T05:10:26;101438.29;;;19.31;29.42
64614;BME280;51025;37.772;-122.432;2022-12-07T05:12:55;101439.54;;;19.25;29.43
64614;BME280;51025;37.772;-122.432;2022-12-07T05:15:23;101439.39;;;19.62;29.12
64614;BME280;51025;37.772;-122.432;2022-12-07T05:17:52;101440.13;;;19.24;28.97
64614;BME280;51025;37.772;-122.432;2022-12-07T05:20:21;101438.85;;;19.59;28.96
64614;BME280;51025;37.772;-122.432;2022-12-07T05:22:50;101436.65;;;21.14;27.89
64614;BME280;51025;37.772;-122.432;2022-12-07T05:25:18;101440.60;;;18.97;29.04
64614;BME280;51025;37.772;-122.432;2022-12-07T05:27:46;101445.41;;;19.42;28.94
64614;BME280;51025;37.772;-122.432;2022-12-07T05:30:15;101445.41;;;19.81;29.04
64614;BME280;51025;37.772;-122.432;2022-12-07T05:32:44;101445.90;;;19.58;29.26
64614;BME280;51025;37.772;-122.432;2022-12-07T05:35:13;101444.83;;;19.31;29.07
64614;BME280;51025;37.772;-122.432;2022-12-07T05:37:42;101442.43;;;19.84;28.59
64614;BME280;51025;37.772;-122.432;2022-12-07T05:40:12;101442.48;;;19.76;29.02
64614;BME280;51025;37.772;-122.432;2022-12-07T05:42:41;101442.71;;;19.73;29.04
64614;BME280;51025;37.772;-122.432;2022-12-07T05:45:11;101444.77;;;19.75;28.93
64614;BME280;51025;37.772;-122.432;2022-12-07T05:47:39;101443.12;;;19.69;28.51
64614;BME280;51025;37.772;-122.432;2022-12-07T05:50:08;101442.74;;;19.32;28.86
64614;BME280;51025;37.772;-122.432;2022-12-07T05:52:36;101443.92;;;20.22;28.35
64614;BME280;51025;37.772;-122.432;2022-12-07T05:55:05;101447.94;;;19.94;28.55
64614;BME280;51025;37.772;-122.432;2022-12-07T05:57:33;101445.81;;;19.93;28.53
64614;BME280;51025;37.772;-122.432;2022-12-07T06:00:04;101444.80;;;19.85;28.58
64614;BME280;51025;37.772;-122.432;2022-12-07T06:02:33;101443.24;;;19.95;28.51
64614;BME280;51025;37.772;-122.432;2022-12-07T06:05:01;101444.27;;;19.54;28.53
64614;BME280;51025;37.772;-122.432;2022-12-07T06:07:30;101442.32;;;19.06;28.94
64614;BME280;51025;37.772;-122.432;2022-12-07T06:09:59;101445.27;;;19.64;29.04
64614;BME280;51025;37.772;-122.432;2022-12-07T06:12:27;101450.09;;;19.64;29.00
64614;BME280;51025;37.772;-122.432;2022-12-07T06:14:56;101450.40;;;19.44;28.79
64614;BME280;51025;37.772;-122.432;2022-12-07T06:17:25;101456.90;;;19.32;28.89
64614;BME280;51025;37.772;-122.432;2022-12-07T06:19:53;101457.29;;;19.48;29.13
64614;BME280;51025;37.772;-122.432;2022-12-07T06:22:23;101457.04;;;19.42;29.55
64614;BME280;51025;37.772;-122.432;2022-12-07T06:24:51;101458.94;;;19.73;29.56
64614;BME280;51025;37.772;-122.432;2022-12-07T06:27:19;101462.22;;;19.64;29.72
64614;BME280;51025;37.772;-122.432;2022-12-07T06:29:47;101460.99;;;19.49;29.50
64614;BME280;51025;37.772;-122.432;2022-12-07T06:32:16;101458.08;;;19.17;29.75
64614;BME280;51025;37.772;-122.432;2022-12-07T06:34:44;101457.17;;;18.70;29.82
64614;BME280;51025;37.772;-122.432;2022-12-07T06:37:13;101458.69;;;19.31;29.32
64614;BME280;51025;37.772;-122.432;2022-12-07T06:39:41;101457.78;;;19.05;29.61
64614;BME280;51025;37.772;-122.432;2022-12-07T06:42:10;101460.99;;;18.71;29.54
64614;BME280;51025;37.772;-122.432;2022-12-07T06:44:38;101462.99;;;19.21;29.35
64614;BME280;51025;37.772;-122.432;2022-12-07T06:47:06;101466.06;;;19.14;29.45
64614;BME280;51025;37.772;-122.432;2022-12-07T06:49:35;101467.89;;;18.70;29.43
64614;BME280;51025;37.772;-122.432;2022-12-07T06:52:04;101474.90;;;18.51;29.73
64614;BME280;51025;37.772;-122.432;2022-12-07T06:54:32;101472.90;;;18.65;29.58
64614;BME280;51025;37.772;-122.432;2022-12-07T06:57:01;101475.78;;;18.74;29.77
64614;BME280;51025;37.772;-122.432;2022-12-07T06:59:30;101474.60;;;18.67;29.73
64614;BME280;51025;37.772;-122.432;2022-12-07T07:01:58;101477.29;;;18.64;29.60
64614;BME280;51025;37.772;-122.432;2022-12-07T07:04:27;101478.15;;;18.85;29.46
64614;BME280;51025;37.772;-122.432;2022-12-07T07:06:56;101483.35;;;18.74;29.31
64614;BME280;51025;37.772;-122.432;2022-12-07T07:09:24;101488.59;;;18.66;29.67
64614;BME280;51025;37.772;-122.432;2022-12-07T07:11:52;101492.48;;;18.97;29.62
64614;BME280;51025;37.772;-122.432;2022-12-07T07:14:21;101489.77;;;18.07;29.62
64614;BME280;51025;37.772;-122.432;2022-12-07T07:16:49;101490.01;;;18.89;29.65
64614;BME280;51025;37.772;-122.432;2022-12-07T07:19:18;101487.45;;;18.43;29.64
64614;BME280;51025;37.772;-122.432;2022-12-07T07:21:46;101486.22;;;18.27;29.74
64614;BME280;51025;37.772;-122.432;2022-12-07T07:24:15;101485.79;;;18.69;29.71
64614;BME280;51025;37.772;-122.432;2022-12-07T07:26:43;101484.91;;;18.91;29.81
64614;BME280;51025;37.772;-122.432;2022-12-07T07:29:12;101484.87;;;18.44;29.64
64614;BME280;51025;37.772;-122.432;2022-12-07T07:31:40;101486.21;;;18.21;29.55
64614;BME280;51025;37.772;-122.432;2022-12-07T07:34:08;101489.28;;;18.77;29.72
64614;BME280;51025;37.772;-122.432;2022-12-07T07:36:37;101493.71;;;18.04;29.75
64614;BME280;51025;37.772;-122.432;2022-12-07T07:39:06;101497.45;;;18.36;29.52
64614;BME280;51025;37.772;-122.432;2022-12-07T07:41:34;101502.84;;;18.35;29.48
64614;BME280;51025;37.772;-122.432;2022-12-07T07:44:02;101505.39;;;17.96;29.50
64614;BME280;51025;37.772;-122.432;2022-12-07T07:46:31;101507.60;;;18.32;29.53
64614;BME280;51025;37.772;-122.432;2022-12-07T07:49:00;101508.90;;;18.39;29.57
64614;BME280;51025;37.772;-122.432;2022-12-07T07:51:28;101508.44;;;18.06;29.55
64614;BME280;51025;37.772;-122.432;2022-12-07T07:53:57;101504.25;;;18.14;29.49
64614;BME280;51025;37.772;-122.432;2022-12-07T07:56:26;101504.75;;;17.68;29.60
64614;BME280;51025;37.772;-122.432;2022-12-07T07:58:54;101504.60;;;17.68;29.42
64614;BME280;51025;37.772;-122.432;2022-12-07T08:01:23;101506.58;;;17.27;29.37
64614;BME280;51025;37.772;-122.432;2022-12-07T08:03:52;101511.66;;;18.59;29.39
64614;BME280;51025;37.772;-122.432;2022-12-07T08:06:21;101512.34;;;17.67;29.32
64614;BME280;51025;37.772;-122.432;2022-12-07T08:08:50;101511.68;;;17.70;29.28
64614;BME280;51025;37.772;-122.432;2022-12-07T08:11:18;101509.82;;;17.52;29.57
64614;BME280;51025;37.772;-122.432;2022-12-07T08:13:47;101508.36;;;17.86;29.54
64614;BME280;51025;37.772;-122.432;2022-12-07T08:16:15;101502.40;;;18.21;29.40
64614;BME280;51025;37.772;-122.432;2022-12-07T08:18:43;101501.87;;;17.53;29.33
64614;BME280;51025;37.772;-122.432;2022-12-07T08:21:14;101500.74;;;17.73;29.47
64614;BME280;51025;37.772;-122.432;2022-12-07T08:23:43;101501.43;;;17.57;29.49
64614;BME280;51025;37.772;-122.432;2022-12-07T08:26:14;101502.21;;;17.70;29.61
64614;BME280;51025;37.772;-122.432;2022-12-07T08:28:44;101499.34;;;18.06;29.53
64614;BME280;51025;37.772;-122.432;2022-12-07T08:31:15;101495.41;;;17.77;29.55
64614;BME280;51025;37.772;-122.432;2022-12-07T08:33:45;101493.59;;;17.92;29.36
64614;BME280;51025;37.772;-122.432;2022-12-07T08:36:14;101494.50;;;17.74;29.61
64614;BME280;51025;37.772;-122.432;2022-12-07T08:38:43;101492.44;;;17.78;29.64
64614;BME280;51025;37.772;-122.432;2022-12-07T08:41:11;101491.97;;;17.63;29.61
64614;BME280;51025;37.772;-122.432;2022-12-07T08:43:40;101494.27;;;18.05;29.55
64614;BME280;51025;37.772;-122.432;2022-12-07T08:46:11;101494.51;;;17.63;29.67
64614;BME280;51025;37.772;-122.432;2022-12-07T08:48:44;101493.01;;;17.63;29.58
64614;BME280;51025;37.772;-122.432;2022-12-07T08:51:15;101493.09;;;17.57;29.50
64614;BME280;51025;37.772;-122.432;2022-12-07T08:53:44;101492.36;;;17.97;29.66
64614;BME280;51025;37.772;-122.432;2022-12-07T08:56:14;101494.36;;;17.45;29.47
64614;BME280;51025;37.772;-122.432;2022-12-07T08:58:43;101492.54;;;17.47;29.47
64614;BME280;51025;37.772;-122.432;2022-12-07T09:01:12;101492.96;;;17.83;29.76
64614;BME280;51025;37.772;-122.432;2022-12-07T09:03:40;101492.45;;;17.28;29.71
64614;BME280;51025;37.772;-122.432;2022-12-07T09:06:08;101493.92;;;17.34;29.57
64614;BME280;51025;37.772;-122.432;2022-12-07T09:08:41;101497.23;;;17.45;29.58
64614;BME280;51025;37.772;-122.432;2022-12-07T09:11:10;101498.06;;;17.73;29.48
64614;BME280;51025;37.772;-122.432;2022-12-07T09:13:38;101501.13;;;17.29;29.49
64614;BME280;51025;37.772;-122.432;2022-12-07T09:16:07;101500.65;;;17.32;29.61
64614;BME280;51025;37.772;-122.432;2022-12-07T09:18:35;101502.51;;;17.62;29.59
64614;BME280;51025;37.772;-122.432;2022-12-07T09:21:05;101499.62;;;17.53;29.62
64614;BME280;51025;37.772;-122.432;2022-12-07T09:23:33;101495.00;;;17.72;29.46
64614;BME280;51025;37.772;-122.432;2022-12-07T09:26:03;101493.13;;;17.12;29.62
64614;BME280;51025;37.772;-122.432;2022-12-07T09:28:32;101491.30;;;17.61;29.67
64614;BME280;51025;37.772;-122.432;2022-12-07T09:31:01;101495.53;;;17.45;29.62
64614;BME280;51025;37.772;-122.432;2022-12-07T09:33:30;101498.93;;;17.08;29.49
64614;BME280;51025;37.772;-122.432;2022-12-07T09:35:59;101499.55;;;16.95;29.63
64614;BME280;51025;37.772;-122.432;2022-12-07T09:38:28;101497.40;;;16.77;29.75
64614;BME280;51025;37.772;-122.432;2022-12-07T09:40:57;101498.16;;;17.32;29.74
64614;BME280;51025;37.772;-122.432;2022-12-07T09:43:26;101500.13;;;16.76;29.74
64614;BME280;51025;37.772;-122.432;2022-12-07T09:45:56;101496.79;;;16.69;29.76
64614;BME280;51025;37.772;-122.432;2022-12-07T09:48:30;101499.60;;;17.34;29.57
64614;BME280;51025;37.772;-122.432;2022-12-07T09:51:01;101497.35;;;17.45;29.46
64614;BME280;51025;37.772;-122.432;2022-12-07T09:53:34;101499.66;;;16.82;29.67
64614;BME280;51025;37.772;-122.432;2022-12-07T09:56:04;101501.57;;;17.48;29.78
64614;BME280;51025;37.772;-122.432;2022-12-07T09:58:34;101503.60;;;17.66;29.58
64614;BME280;51025;37.772;-122.432;2022-12-07T10:01:11;101506.43;;;16.89;29.58
64614;BME280;51025;37.772;-122.432;2022-12-07T10:03:45;101508.53;;;16.76;29.69
64614;BME280;51025;37.772;-122.432;2022-12-07T10:06:17;101511.66;;;16.74;29.67
64614;BME280;51025;37.772;-122.432;2022-12-07T10:08:46;101513.00;;;17.19;29.71
64614;BME280;51025;37.772;-122.432;2022-12-07T10:11:14;101511.04;;;17.43;29.76
64614;BME280;51025;37.772;-122.432;2022-12-07T10:13:45;101514.25;;;17.49;29.70
64614;BME280;51025;37.772;-122.432;2022-12-07T10:16:32;101516.73;;;17.25;29.98
64614;BME280;51025;37.772;-122.432;2022-12-07T10:19:20;101520.25;;;16.89;29.87
64614;BME280;51025;37.772;-122.432;2022-12-07T10:22:12;101521.24;;;16.91;29.87
64614;BME280;51025;37.772;-122.432;2022-12-07T10:24:43;101523.06;;;17.25;29.91
64614;BME280;51025;37.772;-122.432;2022-12-07T10:27:22;101522.57;;;16.91;29.84
64614;BME280;51025;37.772;-122.432;2022-12-07T10:29:54;101522.29;;;17.00;30.03
64614;BME280;51025;37.772;-122.432;2022-12-07T10:32:31;101523.18;;;17.22;29.90
64614;BME280;51025;37.772;-122.432;2022-12-07T10:35:33;101521.14;;;17.22;29.88
64614;BME280;51025;37.772;-122.432;2022-12-07T10:38:17;101521.19;;;16.70;30.04
64614;BME280;51025;37.772;-122.432;2022-12-07T10:40:46;101521.58;;;16.29;30.03
64614;BME280;51025;37.772;-122.432;2022-12-07T10:43:19;101521.75;;;16.98;30.05
64614;BME280;51025;37.772;-122.432;2022-12-07T10:46:14;101527.31;;;16.94;30.13
64614;BME280;51025;37.772;-122.432;2022-12-07T10:48:55;101529.93;;;16.96;30.10
64614;BME280;51025;37.772;-122.432;2022-12-07T10:51:30;101530.75;;;16.12;30.08
64614;BME280;51025;37.772;-122.432;2022-12-07T10:54:11;101531.68;;;16.92;30.03
64614;BME280;51025;37.772;-122.432;2022-12-07T10:56:51;101532.97;;;16.58;30.03
64614;BME280;51025;37.772;-122.432;2022-12-07T10:59:41;101532.20;;;16.88;30.04
64614;BME280;51025;37.772;-122.432;2022-12-07T11:02:23;101537.06;;;16.88;30.06
64614;BME280;51025;37.772;-122.432;2022-12-07T11:05:03;101538.62;;;16.88;30.02
64614;BME280;51025;37.772;-122.432;2022-12-07T11:07:42;101540.27;;;16.72;30.12
64614;BME280;51025;37.772;-122.432;2022-12-07T11:10:20;101541.10;;;16.73;30.16
64614;BME280;51025;37.772;-122.432;2022-12-07T11:13:04;101545.22;;;16.54;30.34
64614;BME280;51025;37.772;-122.432;2022-12-07T11:15:52;101546.84;;;16.27;30.24
64614;BME280;51025;37.772;-122.432;2022-12-07T11:18:26;101544.83;;;16.75;30.04
64614;BME280;51025;37.772;-122.432;2022-12-07T11:21:04;101545.44;;;16.64;30.10
64614;BME280;51025;37.772;-122.432;2022-12-07T11:23:44;101543.57;;;16.43;30.38
64614;BME280;51025;37.772;-122.432;2022-12-07T11:26:21;101544.27;;;16.54;30.26
64614;BME280;51025;37.772;-122.432;2022-12-07T11:29:06;101542.21;;;16.43;30.43
64614;BME280;51025;37.772;-122.432;2022-12-07T11:31:53;101545.16;;;16.43;30.37
64614;BME280;51025;37.772;-122.432;2022-12-07T11:34:36;101549.07;;;16.37;30.41
64614;BME280;51025;37.772;-122.432;2022-12-07T11:37:10;101550.39;;;16.43;30.37
64614;BME280;51025;37.772;-122.432;2022-12-07T11:39:46;101554.20;;;16.14;30.59
64614;BME280;51025;37.772;-122.432;2022-12-07T11:42:21;101555.00;;;16.31;30.42
64614;BME280;51025;37.772;-122.432;2022-12-07T11:44:53;101555.26;;;16.31;30.40
64614;BME280;51025;37.772;-122.432;2022-12-07T11:47:30;101553.98;;;16.19;30.46
64614;BME280;51025;37.772;-122.432;2022-12-07T11:50:14;101552.13;;;16.19;30.45
64614;BME280;51025;37.772;-122.432;2022-12-07T11:52:53;101551.02;;;16.09;30.55
64614;BME280;51025;37.772;-122.432;2022-12-07T11:55:26;101550.63;;;16.04;30.52
64614;BME280;51025;37.772;-122.432;2022-12-07T11:58:04;101553.20;;;16.11;30.46
64614;BME280;51025;37.772;-122.432;2022-12-07T12:00:33;101549.61;;;16.06;30.45
64614;BME280;51025;37.772;-122.432;2022-12-07T12:03:07;101552.05;;;16.87;30.40
64614;BME280;51025;37.772;-122.432;2022-12-07T12:05:39;101551.36;;;16.50;30.38
64614;BME280;51025;37.772;-122.432;2022-12-07T12:08:15;101553.26;;;16.56;30.30
64614;BME280;51025;37.772;-122.432;2022-12-07T12:10:55;101555.33;;;15.84;30.61
64614;BME280;51025;37.772;-122.432;2022-12-07T12:13:47;101560.87;;;16.27;30.55
64614;BME280;51025;37.772;-122.432;2022-12-07T12:16:37;101563.00;;;15.87;30.57
64614;BME280;51025;37.772;-122.432;2022-12-07T12:19:20;101563.99;;;15.96;30.41
64614;BME280;51025;37.772;-122.432;2022-12-07T12:21:56;101563.48;;;16.31;30.43
64614;BME280;51025;37.772;-122.432;2022-12-07T12:24:28;101562.04;;;15.84;30.46
64614;BME280;51025;37.772;-122.432;2022-12-07T12:27:01;101564.54;;;16.32;30.37
64614;BME280;51025;37.772;-122.432;2022-12-07T12:29:34;101565.87;;;15.70;30.58
64614;BME280;51025;37.772;-122.432;2022-12-07T12:32:12;101566.55;;;16.13;30.53
64614;BME280;51025;37.772;-122.432;2022-12-07T12:34:59;101569.75;;;16.46;30.59
64614;BME280;51025;37.772;-122.432;2022-12-07T12:37:45;101568.54;;;16.11;30.55
64614;BME280;51025;37.772;-122.432;2022-12-07T12:40:46;101572.92;;;16.10;30.53
64614;BME280;51025;37.772;-122.432;2022-12-07T12:43:53;101576.38;;;16.09;30.57
64614;BME280;51025;37.772;-122.432;2022-12-07T12:46:54;101576.05;;;15.64;30.58
64614;BME280;51025;37.772;-122.432;2022-12-07T12:49:38;101579.42;;;16.28;30.66